Ahmedabad, India
Current Conditions -  °F | °C
As of 7:40 PM on Sunday 21 Dec 2014 (Local Time) from VAAH Reporting Station
Smoke Smoke  
Wind Chill: 64°   Ceiling: Unl
Heat Index: 64°   Visibility: 2.5mi
Dew Point: 50°   Wind: 2mph
Humidity: 59%   Direction: NA
Pressure: 29.94"   Gusts: NA
Location:  23.04°N, 72.57°E
Report Text: VAAH 211440Z VRB02KT 4000 FU NSC 18/10 Q1014 NOSIG
Loading
Personal Weather Stations






























Interactive Weather Map New forecast layout! Learn more

10-Day Weather Forecast

Advertisements
Track Severe Weather on mobile